Poskin, Wisconsin
Current Conditions -  °F | °C
As of 5:15 AM on Monday 22 Dec 2014 (Local Time) from KRPD Reporting Station
Haze Haze  
Wind Chill: 26°   Ceiling: 300
Heat Index: 34°   Visibility: 2mi
Dew Point: 33°   Wind: 10mph
Humidity: 97%   Direction: 130°SE
Pressure: 29.75"   Gusts: NA
Location:  45.3978°N, 91.8834°W
Report Text: KRPD 221115Z AUTO 13009KT 2SM BR OVC003 01/01 A2975 RMK AO2 T00110007
Loading
Personal Weather Stations






























Interactive Weather Map New forecast layout! Learn more

10-Day Weather Forecast

Advertisements
Track Severe Weather on mobile